Time;durP1;ratioP1;P1;durP2;ratioP2;P2;SDS_P1;SDS_P2;PMS_P1;PMS_P2;Temp;Humidity;BMP_temperature;BMP_pressure;BME280_temperature;BME280_humidity;BME280_pressure;Samples;Min_cycle;Max_cycle;Signal;HPM_P1;HPM_P2
2022/10/29 00:00:55;;;;;;;14.73;9.15;;;12.80;99.90;;;;;;5081581;28;20056;-65
2022/10/29 00:03:23;;;;;;;12.43;8.27;;;12.80;99.90;;;;;;5081979;28;20041;-65
2022/10/29 00:06:11;;;;;;;9.68;8.73;;;12.80;99.90;;;;;;5076147;28;20410;-67
2022/10/29 00:08:39;;;;;;;11.00;9.88;;;12.80;99.90;;;;;;5083276;28;20044;-68
2022/10/29 00:11:17;;;;;;;14.52;9.73;;;12.70;99.90;;;;;;5077833;28;20498;-68
2022/10/29 00:13:45;;;;;;;12.80;10.68;;;12.70;99.90;;;;;;5079815;28;20113;-69
2022/10/29 00:16:21;;;;;;;18.48;11.85;;;12.70;99.90;;;;;;5082067;28;20542;-67
2022/10/29 00:18:48;;;;;;;16.27;12.10;;;12.70;99.90;;;;;;5083247;28;20037;-69
2022/10/29 00:21:18;;;;;;;14.10;11.65;;;12.70;99.90;;;;;;5069216;28;20044;-71
2022/10/29 00:23:45;;;;;;;18.98;12.93;;;12.60;99.90;;;;;;5083642;28;20040;-69
2022/10/29 00:26:13;;;;;;;15.57;10.68;;;12.70;99.90;;;;;;5077478;28;20071;-68
2022/10/29 00:28:40;;;;;;;17.85;13.18;;;12.70;99.90;;;;;;5078240;28;20234;-67
2022/10/29 00:31:15;;;;;;;21.90;12.57;;;12.70;99.90;;;;;;5078351;28;20055;-68
2022/10/29 00:33:42;;;;;;;20.38;15.15;;;12.60;99.90;;;;;;5079978;28;20051;-67
2022/10/29 00:36:14;;;;;;;17.90;14.18;;;12.70;99.90;;;;;;5075772;28;20382;-64
2022/10/29 00:38:42;;;;;;;17.08;14.52;;;12.70;99.90;;;;;;5070901;28;20082;-66
2022/10/29 00:41:13;;;;;;;18.65;14.90;;;12.70;99.90;;;;;;5079298;28;20056;-66
2022/10/29 00:43:44;;;;;;;20.40;14.20;;;12.70;99.90;;;;;;5078925;28;20117;-64
2022/10/29 00:46:16;;;;;;;21.40;14.32;;;12.70;99.90;;;;;;5074548;28;20056;-68
2022/10/29 00:48:46;;;;;;;24.00;16.30;;;12.70;99.90;;;;;;5079805;28;20135;-66
2022/10/29 00:51:15;;;;;;;24.73;16.40;;;12.70;99.90;;;;;;5080326;28;20087;-68
2022/10/29 00:53:51;;;;;;;19.98;15.35;;;12.60;99.90;;;;;;5077368;28;20039;-66
2022/10/29 00:56:19;;;;;;;21.30;16.88;;;12.70;99.90;;;;;;5077491;28;20143;-65
2022/10/29 00:58:47;;;;;;;21.98;16.55;;;12.60;99.90;;;;;;5080250;28;20044;-69
2022/10/29 01:01:14;;;;;;;25.25;18.27;;;12.60;99.90;;;;;;5082588;28;20044;-69
2022/10/29 01:03:42;;;;;;;25.10;18.02;;;12.60;99.90;;;;;;5081157;28;20048;-64
2022/10/29 01:06:09;;;;;;;25.65;17.63;;;12.60;99.90;;;;;;5075010;28;20067;-66
2022/10/29 01:08:36;;;;;;;26.83;17.38;;;12.60;99.90;;;;;;5078313;28;20672;-70
2022/10/29 01:11:08;;;;;;;31.52;21.70;;;12.60;99.90;;;;;;5061276;28;20332;-70
2022/10/29 01:14:14;;;;;;;24.13;17.80;;;12.70;99.90;;;;;;5078487;28;20076;-66
2022/10/29 01:17:09;;;;;;;22.25;17.70;;;12.70;99.90;;;;;;5043450;28;20215;-64
2022/10/29 01:19:38;;;;;;;33.25;20.33;;;12.70;99.90;;;;;;5080557;28;20194;-66
2022/10/29 01:22:14;;;;;;;27.60;19.08;;;12.70;99.90;;;;;;5079468;28;20386;-64
2022/10/29 01:24:41;;;;;;;25.10;18.17;;;12.60;99.90;;;;;;5077099;28;20047;-70
2022/10/29 01:27:37;;;;;;;24.33;16.10;;;12.60;99.90;;;;;;5078200;28;20048;-70
2022/10/29 01:30:17;;;;;;;24.83;15.63;;;12.70;99.90;;;;;;5072906;28;20044;-66
2022/10/29 01:32:47;;;;;;;23.63;15.15;;;12.70;99.90;;;;;;5080397;28;20056;-69
2022/10/29 01:35:38;;;;;;;22.55;15.02;;;12.70;99.90;;;;;;5079176;28;20052;-67
2022/10/29 01:38:17;;;;;;;20.35;14.57;;;12.70;99.90;;;;;;5075660;28;20052;-68
2022/10/29 01:41:05;;;;;;;19.23;13.98;;;12.60;99.90;;;;;;5077396;28;20487;-65
2022/10/29 01:43:37;;;;;;;15.60;12.88;;;12.60;99.90;;;;;;5076592;28;20501;-65
2022/10/29 01:46:16;;;;;;;17.80;14.38;;;12.60;99.90;;;;;;5077714;28;23193;-67
2022/10/29 01:48:47;;;;;;;23.80;16.25;;;12.60;99.90;;;;;;5076935;28;20050;-69
2022/10/29 01:51:27;;;;;;;16.38;13.68;;;12.60;99.90;;;;;;5076066;28;20052;-67
2022/10/29 01:53:56;;;;;;;19.95;14.18;;;12.60;99.90;;;;;;5078544;28;20076;-70
2022/10/29 01:56:23;;;;;;;20.20;13.75;;;12.60;99.90;;;;;;5078287;28;20047;-65
2022/10/29 01:58:54;;;;;;;21.58;13.75;;;12.60;99.90;;;;;;5085200;28;20075;-66
2022/10/29 02:01:30;;;;;;;17.90;14.13;;;12.60;99.90;;;;;;5082527;28;21519;-67
2022/10/29 02:04:22;;;;;;;15.65;12.52;;;12.60;99.90;;;;;;5077558;28;20144;-65
2022/10/29 02:06:55;;;;;;;16.15;12.15;;;12.70;99.90;;;;;;5083366;28;20048;-70
2022/10/29 02:09:31;;;;;;;23.30;14.75;;;12.70;99.90;;;;;;5083466;28;20051;-71
2022/10/29 02:12:07;;;;;;;17.45;12.38;;;12.70;99.90;;;;;;5082867;28;20052;-65
2022/10/29 02:14:39;;;;;;;19.40;14.15;;;12.70;99.90;;;;;;5077880;28;20048;-67
2022/10/29 02:17:07;;;;;;;16.75;12.73;;;12.70;99.90;;;;;;5081484;28;20740;-66
2022/10/29 02:19:35;;;;;;;18.08;14.10;;;12.70;99.90;;;;;;5079075;28;20052;-68
2022/10/29 02:22:02;;;;;;;20.63;14.57;;;12.70;99.90;;;;;;5073350;28;20060;-68
2022/10/29 02:24:29;;;;;;;18.83;14.38;;;12.80;99.90;;;;;;5072323;28;20048;-64
2022/10/29 02:26:56;;;;;;;21.25;16.70;;;12.80;99.90;;;;;;5080544;28;20062;-68
2022/10/29 02:29:22;;;;;;;27.48;14.90;;;12.90;99.90;;;;;;5080582;28;20051;-66
2022/10/29 02:31:49;;;;;;;20.42;16.40;;;12.90;99.90;;;;;;5084085;28;20074;-68
2022/10/29 02:34:16;;;;;;;23.23;15.73;;;12.90;99.90;;;;;;5079085;28;20052;-67
2022/10/29 02:36:43;;;;;;;27.05;17.50;;;13.00;99.90;;;;;;5080541;28;20401;-68
2022/10/29 02:39:10;;;;;;;26.55;15.82;;;13.00;99.90;;;;;;5083446;28;20097;-65
2022/10/29 02:41:37;;;;;;;22.08;16.20;;;12.90;99.90;;;;;;5081871;28;20135;-68
2022/10/29 02:44:04;;;;;;;25.60;18.15;;;12.90;99.90;;;;;;5078922;28;20052;-66
2022/10/29 02:46:31;;;;;;;26.30;16.45;;;13.00;99.90;;;;;;5080410;28;20054;-64
2022/10/29 02:48:57;;;;;;;24.20;18.42;;;12.90;99.90;;;;;;5075552;28;20050;-70
2022/10/29 02:51:24;;;;;;;28.00;18.80;;;12.90;99.90;;;;;;5077685;28;20047;-66
2022/10/29 02:53:51;;;;;;;29.10;18.83;;;12.90;99.90;;;;;;5080455;28;20137;-66
2022/10/29 02:56:18;;;;;;;30.77;19.80;;;12.90;99.90;;;;;;5080567;28;20036;-65
2022/10/29 02:58:45;;;;;;;32.22;19.73;;;12.90;99.90;;;;;;5083439;28;20069;-66
2022/10/29 03:01:12;;;;;;;33.97;21.48;;;12.90;99.90;;;;;;5066321;28;20412;-64
2022/10/29 03:03:39;;;;;;;29.63;19.75;;;12.90;99.90;;;;;;5088415;28;20094;-64
2022/10/29 03:06:12;;;;;;;31.23;20.20;;;12.90;99.90;;;;;;5085499;28;20079;-66
2022/10/29 03:08:39;;;;;;;25.42;18.80;;;12.90;99.90;;;;;;5078141;28;20114;-69
2022/10/29 03:11:06;;;;;;;31.42;17.50;;;12.90;99.90;;;;;;5077671;28;20154;-69
2022/10/29 03:13:33;;;;;;;29.58;19.33;;;12.90;99.90;;;;;;5081072;28;20130;-64
2022/10/29 03:16:00;;;;;;;29.42;18.95;;;13.00;99.90;;;;;;5078836;28;20070;-71
2022/10/29 03:18:27;;;;;;;34.25;19.90;;;13.00;99.90;;;;;;5082204;28;20289;-66
2022/10/29 03:20:54;;;;;;;27.90;18.77;;;12.90;99.90;;;;;;5082906;28;20139;-66
2022/10/29 03:23:21;;;;;;;31.38;21.10;;;12.90;99.90;;;;;;5086669;28;20049;-65
2022/10/29 03:25:53;;;;;;;33.75;18.80;;;12.90;99.90;;;;;;5084307;28;20130;-69
2022/10/29 03:28:23;;;;;;;43.15;21.85;;;12.90;99.90;;;;;;5087302;28;20051;-70
2022/10/29 03:30:50;;;;;;;33.42;21.48;;;12.90;99.90;;;;;;5079158;28;20044;-70
2022/10/29 03:33:17;;;;;;;32.22;21.13;;;12.90;99.90;;;;;;5082247;28;20070;-65
2022/10/29 03:35:43;;;;;;;38.90;22.65;;;12.90;99.90;;;;;;5074975;28;20048;-70
2022/10/29 03:38:11;;;;;;;32.63;19.95;;;12.90;99.90;;;;;;5081602;28;20051;-65
2022/10/29 03:40:38;;;;;;;41.20;22.52;;;12.90;99.90;;;;;;5085627;28;20058;-64
2022/10/29 03:43:04;;;;;;;38.47;22.92;;;13.00;99.90;;;;;;5078423;28;20079;-66
2022/10/29 03:45:31;;;;;;;36.28;22.55;;;13.00;99.90;;;;;;5088755;28;21329;-65
2022/10/29 03:47:58;;;;;;;32.92;20.10;;;13.10;99.90;;;;;;5082707;28;20516;-65
2022/10/29 03:50:25;;;;;;;39.70;21.80;;;13.10;99.90;;;;;;5082312;28;20321;-67
2022/10/29 03:52:52;;;;;;;37.90;22.17;;;13.20;99.90;;;;;;5085549;28;20128;-65
2022/10/29 03:55:19;;;;;;;29.63;21.55;;;13.10;99.90;;;;;;5079999;28;20051;-65
2022/10/29 03:57:46;;;;;;;36.58;22.33;;;13.10;99.90;;;;;;5075733;28;20147;-72
2022/10/29 04:00:13;;;;;;;40.90;24.20;;;13.20;99.90;;;;;;5084280;28;20048;-64
2022/10/29 04:02:40;;;;;;;36.22;22.13;;;13.10;99.90;;;;;;5079567;28;20055;-64
2022/10/29 04:05:08;;;;;;;39.03;25.42;;;13.20;99.90;;;;;;5082842;28;20088;-68
2022/10/29 04:07:34;;;;;;;38.13;26.10;;;13.20;99.90;;;;;;5081211;28;20479;-67
2022/10/29 04:10:01;;;;;;;46.55;24.83;;;13.30;99.90;;;;;;5081788;28;20062;-69
2022/10/29 04:12:28;;;;;;;36.72;24.77;;;13.30;99.90;;;;;;5081235;28;20579;-66
2022/10/29 04:14:55;;;;;;;42.22;25.80;;;13.30;99.90;;;;;;5080791;28;20044;-66
2022/10/29 04:17:22;;;;;;;41.38;26.83;;;13.30;99.90;;;;;;5082971;28;20117;-69
2022/10/29 04:19:49;;;;;;;39.70;26.25;;;13.30;99.90;;;;;;5073260;28;20051;-71
2022/10/29 04:22:16;;;;;;;42.55;26.30;;;13.20;99.90;;;;;;5083512;28;20214;-69
2022/10/29 04:25:03;;;;;;;40.05;26.05;;;13.20;99.90;;;;;;5079288;28;20083;-66
2022/10/29 04:27:52;;;;;;;40.63;27.00;;;13.20;99.90;;;;;;5081532;28;20055;-66
2022/10/29 04:30:39;;;;;;;36.63;26.83;;;13.30;99.90;;;;;;5081834;28;20054;-66
2022/10/29 04:33:05;;;;;;;48.83;27.20;;;13.30;99.90;;;;;;5083263;28;20540;-68
2022/10/29 04:35:32;;;;;;;42.50;28.00;;;13.30;99.90;;;;;;5081312;28;20040;-64
2022/10/29 04:38:06;;;;;;;45.67;25.92;;;13.30;99.90;;;;;;5082049;28;20048;-67
2022/10/29 04:40:33;;;;;;;36.95;25.33;;;13.30;99.90;;;;;;5084156;28;20071;-65
2022/10/29 04:43:00;;;;;;;36.63;24.67;;;13.40;99.90;;;;;;5067680;28;20044;-70
2022/10/29 04:45:26;;;;;;;46.90;27.15;;;13.40;99.90;;;;;;5079284;28;20356;-65
2022/10/29 04:48:04;;;;;;;40.30;24.40;;;13.40;99.90;;;;;;5080594;28;20093;-67
2022/10/29 04:50:32;;;;;;;39.08;24.90;;;13.40;99.90;;;;;;5075686;28;20531;-68
2022/10/29 04:53:01;;;;;;;43.63;28.10;;;13.40;99.90;;;;;;5084694;28;20383;-66
2022/10/29 04:55:28;;;;;;;44.30;27.05;;;13.40;99.90;;;;;;5079402;28;20060;-68
2022/10/29 04:57:55;;;;;;;38.60;24.85;;;13.40;99.90;;;;;;5083766;28;20067;-71
2022/10/29 05:00:23;;;;;;;38.35;22.80;;;13.40;99.90;;;;;;5084358;28;20072;-69
2022/10/29 05:02:51;;;;;;;36.00;24.27;;;13.40;99.90;;;;;;5083677;28;20793;-68
2022/10/29 05:05:19;;;;;;;38.00;25.45;;;13.40;99.90;;;;;;5084578;28;20056;-65
2022/10/29 05:07:46;;;;;;;38.33;23.55;;;13.40;99.90;;;;;;5080416;28;20043;-69
2022/10/29 05:10:13;;;;;;;36.53;23.35;;;13.40;99.90;;;;;;5084974;28;20354;-67
2022/10/29 05:12:40;;;;;;;37.33;22.92;;;13.40;99.90;;;;;;5082790;28;20056;-66
2022/10/29 05:15:07;;;;;;;31.25;20.13;;;13.50;99.90;;;;;;5078911;28;20178;-67
2022/10/29 05:17:37;;;;;;;25.98;19.83;;;13.40;99.90;;;;;;5085482;28;20050;-70
2022/10/29 05:20:05;;;;;;;24.60;19.65;;;13.40;99.90;;;;;;5075903;28;20142;-70
2022/10/29 05:22:32;;;;;;;37.22;21.75;;;13.50;99.90;;;;;;5078702;28;20557;-69
2022/10/29 05:24:59;;;;;;;27.92;20.08;;;13.50;99.90;;;;;;5081731;28;20045;-70
2022/10/29 05:27:26;;;;;;;25.60;18.60;;;13.50;99.90;;;;;;5076995;28;20052;-64
2022/10/29 05:29:52;;;;;;;27.10;19.35;;;13.50;99.90;;;;;;5082302;28;20485;-70
2022/10/29 05:32:19;;;;;;;25.30;18.50;;;13.50;99.90;;;;;;5079706;28;20051;-64
2022/10/29 05:34:46;;;;;;;25.88;18.27;;;13.40;99.90;;;;;;5080990;28;20070;-66
2022/10/29 05:37:13;;;;;;;25.10;18.05;;;13.40;99.90;;;;;;5064787;28;20135;-65
2022/10/29 05:39:40;;;;;;;29.65;19.15;;;13.40;99.90;;;;;;5086449;28;20460;-66
2022/10/29 05:42:07;;;;;;;21.15;16.65;;;13.40;99.90;;;;;;5079977;28;20577;-67
2022/10/29 05:44:34;;;;;;;22.33;16.60;;;13.40;99.90;;;;;;5085878;28;20051;-65
2022/10/29 05:47:01;;;;;;;27.00;19.77;;;13.40;99.90;;;;;;5082389;28;20491;-67
2022/10/29 05:49:28;;;;;;;24.23;18.25;;;13.40;99.90;;;;;;5085295;28;20584;-67
2022/10/29 05:51:55;;;;;;;28.38;16.30;;;13.50;99.90;;;;;;5087467;28;20499;-64
2022/10/29 05:54:21;;;;;;;17.42;14.30;;;13.50;99.90;;;;;;5085403;28;20048;-71
2022/10/29 05:56:48;;;;;;;20.42;14.88;;;13.50;99.90;;;;;;5080785;28;20047;-65
2022/10/29 05:59:15;;;;;;;19.23;16.92;;;13.50;99.90;;;;;;5084136;28;20044;-65
2022/10/29 06:01:42;;;;;;;21.10;16.67;;;13.50;99.90;;;;;;5083939;28;20078;-65
2022/10/29 06:04:09;;;;;;;20.90;16.50;;;13.50;99.90;;;;;;5082736;28;20101;-67
2022/10/29 06:06:37;;;;;;;22.17;18.45;;;13.40;99.90;;;;;;5081729;28;20048;-67
2022/10/29 06:09:04;;;;;;;25.73;17.92;;;13.40;99.90;;;;;;5087246;28;20159;-64
2022/10/29 06:11:31;;;;;;;20.98;16.20;;;13.30;99.90;;;;;;5080992;28;20032;-64
2022/10/29 06:13:58;;;;;;;23.67;17.20;;;13.30;99.90;;;;;;5084790;28;20508;-68
2022/10/29 06:16:25;;;;;;;19.00;15.32;;;13.30;99.90;;;;;;5085931;28;20046;-67
2022/10/29 06:18:51;;;;;;;20.88;17.10;;;13.30;99.90;;;;;;5084036;28;20056;-69
2022/10/29 06:21:18;;;;;;;21.42;15.60;;;13.30;99.90;;;;;;5082221;28;20055;-70
2022/10/29 06:23:45;;;;;;;23.05;16.95;;;13.30;99.90;;;;;;5082332;28;20048;-67
2022/10/29 06:26:12;;;;;;;19.48;15.95;;;13.30;99.90;;;;;;5084230;28;20051;-67
2022/10/29 06:28:39;;;;;;;22.20;16.65;;;13.30;99.90;;;;;;5083299;28;20138;-64
2022/10/29 06:31:06;;;;;;;19.67;15.68;;;13.30;99.90;;;;;;5080046;28;20074;-68
2022/10/29 06:33:32;;;;;;;21.08;14.15;;;13.30;99.90;;;;;;5084165;28;20066;-66
2022/10/29 06:36:00;;;;;;;16.73;14.40;;;13.30;99.90;;;;;;5076725;28;20036;-67
2022/10/29 06:38:27;;;;;;;19.10;14.60;;;13.30;99.90;;;;;;5079322;28;20056;-65
2022/10/29 06:40:54;;;;;;;22.88;14.52;;;13.20;99.90;;;;;;5056868;28;20808;-64
2022/10/29 06:43:21;;;;;;;17.85;13.88;;;13.10;99.90;;;;;;5077077;28;20040;-65
2022/10/29 06:45:49;;;;;;;17.50;14.35;;;13.20;99.90;;;;;;5081498;28;20086;-70
2022/10/29 06:48:16;;;;;;;17.85;13.88;;;13.10;99.90;;;;;;5078154;28;20051;-65
2022/10/29 06:50:48;;;;;;;13.90;11.52;;;13.10;99.90;;;;;;5057876;28;20048;-66
2022/10/29 06:53:17;;;;;;;17.88;13.43;;;13.10;99.90;;;;;;5085083;28;20146;-68
2022/10/29 06:55:44;;;;;;;16.92;12.77;;;13.00;99.90;;;;;;5079471;28;20560;-65
2022/10/29 06:58:14;;;;;;;13.07;9.77;;;13.00;99.90;;;;;;5074342;28;20058;-65
2022/10/29 07:00:41;;;;;;;12.48;9.23;;;13.00;99.90;;;;;;5077056;28;20488;-67
2022/10/29 07:03:16;;;;;;;10.90;8.32;;;13.00;99.90;;;;;;5077101;28;20529;-75
2022/10/29 07:05:44;;;;;;;16.73;9.50;;;12.90;99.90;;;;;;5066877;28;20040;-65
2022/10/29 07:08:11;;;;;;;18.27;7.53;;;12.90;99.90;;;;;;5083033;28;20050;-66
2022/10/29 07:10:39;;;;;;;11.00;7.65;;;12.90;99.90;;;;;;5079692;28;20470;-69
2022/10/29 07:13:06;;;;;;;10.93;6.10;;;13.00;99.90;;;;;;5082135;28;20055;-74
2022/10/29 07:15:33;;;;;;;10.75;5.97;;;12.90;99.90;;;;;;5076217;28;20049;-72
2022/10/29 07:18:05;;;;;;;11.27;7.93;;;12.90;99.90;;;;;;5075848;28;20082;-69
2022/10/29 07:20:34;;;;;;;9.30;6.45;;;12.90;99.90;;;;;;5079676;28;20063;-64
2022/10/29 07:23:01;;;;;;;8.57;6.00;;;12.90;99.90;;;;;;5085224;28;20158;-68
2022/10/29 07:25:29;;;;;;;10.90;5.78;;;12.80;99.90;;;;;;5078307;28;20565;-66
2022/10/29 07:28:10;;;;;;;10.15;5.63;;;12.80;99.90;;;;;;5072961;28;20050;-65
2022/10/29 07:30:37;;;;;;;6.90;4.50;;;12.80;99.90;;;;;;5082285;28;20504;-65
2022/10/29 07:33:04;;;;;;;9.43;3.58;;;12.80;99.90;;;;;;5084292;28;20068;-64
2022/10/29 07:35:32;;;;;;;10.13;3.95;;;12.80;99.90;;;;;;5074636;28;20052;-73
2022/10/29 07:38:01;;;;;;;8.57;3.42;;;12.80;99.90;;;;;;5077263;28;20055;-65
2022/10/29 07:40:44;;;;;;;7.82;2.80;;;12.70;99.90;;;;;;5080329;28;20058;-70
2022/10/29 07:43:11;;;;;;;6.03;2.72;;;12.70;99.90;;;;;;5082507;28;20061;-65
2022/10/29 07:45:38;;;;;;;11.57;6.65;;;12.70;99.90;;;;;;5080193;28;20059;-66
2022/10/29 07:48:06;;;;;;;8.93;3.60;;;12.70;99.90;;;;;;5076027;28;20480;-75
2022/10/29 07:50:34;;;;;;;14.18;2.70;;;12.70;99.90;;;;;;5080071;28;20513;-68
2022/10/29 07:53:02;;;;;;;9.15;3.33;;;12.70;99.90;;;;;;5079790;28;20052;-66
2022/10/29 07:55:29;;;;;;;10.07;3.85;;;12.60;99.90;;;;;;5079994;28;20053;-68
2022/10/29 07:58:04;;;;;;;11.70;3.10;;;12.60;99.90;;;;;;5075352;28;20036;-65
2022/10/29 08:00:36;;;;;;;9.10;5.18;;;12.60;99.90;;;;;;5078014;28;20062;-64
2022/10/29 08:03:04;;;;;;;7.38;3.35;;;12.60;99.90;;;;;;5085843;28;20513;-65
2022/10/29 08:05:31;;;;;;;10.30;2.83;;;12.60;99.90;;;;;;5082589;28;20050;-67
2022/10/29 08:07:59;;;;;;;14.15;3.70;;;12.60;99.90;;;;;;5080964;28;20054;-65
2022/10/29 08:10:27;;;;;;;11.60;4.05;;;12.60;99.90;;;;;;5080658;28;20080;-64
2022/10/29 08:12:56;;;;;;;14.50;3.33;;;12.60;99.90;;;;;;5084759;28;20048;-66
2022/10/29 08:15:27;;;;;;;10.88;4.00;;;12.50;99.90;;;;;;5088141;28;20056;-67
2022/10/29 08:17:54;;;;;;;11.38;3.72;;;12.60;99.90;;;;;;5082138;28;20093;-66
2022/10/29 08:20:23;;;;;;;7.00;2.28;;;12.60;99.90;;;;;;5081128;28;20047;-65
2022/10/29 08:22:49;;;;;;;15.25;5.07;;;12.60;99.90;;;;;;5081239;28;20093;-68
2022/10/29 08:25:17;;;;;;;11.70;3.47;;;12.50;99.90;;;;;;5080615;28;20060;-67
2022/10/29 08:27:44;;;;;;;18.17;3.50;;;12.50;99.90;;;;;;5085481;28;20135;-65
2022/10/29 08:30:12;;;;;;;9.00;3.05;;;12.50;99.90;;;;;;5084594;28;20135;-69
2022/10/29 08:32:46;;;;;;;9.55;3.63;;;12.50;99.90;;;;;;5089150;28;20147;-64
2022/10/29 08:35:13;;;;;;;13.25;4.05;;;12.50;99.90;;;;;;5083595;28;20130;-66
2022/10/29 08:37:43;;;;;;;17.88;3.60;;;12.40;99.90;;;;;;5087239;28;20130;-64
2022/10/29 08:40:34;;;;;;;8.52;2.33;;;12.40;99.90;;;;;;5065814;28;20040;-63
2022/10/29 08:43:07;;;;;;;16.08;4.40;;;12.50;99.90;;;;;;5077383;28;20048;-70
2022/10/29 08:45:44;;;;;;;12.43;4.47;;;12.40;99.90;;;;;;5086391;28;20406;-64
2022/10/29 08:48:47;;;;;;;11.07;4.47;;;12.40;99.90;;;;;;5079494;28;20045;-67
2022/10/29 08:51:32;;;;;;;6.05;1.98;;;12.40;99.90;;;;;;5058964;28;20138;-75
2022/10/29 08:54:00;;;;;;;5.43;2.70;;;12.40;99.90;;;;;;5087995;28;20314;-68
2022/10/29 08:56:56;;;;;;;9.88;2.63;;;12.40;99.90;;;;;;5088159;28;20054;-67
2022/10/29 08:59:24;;;;;;;11.13;2.72;;;12.30;99.90;;;;;;5086361;28;20048;-64
2022/10/29 09:01:52;;;;;;;14.15;2.30;;;12.30;99.90;;;;;;5082502;28;20344;-70
2022/10/29 09:04:37;;;;;;;8.18;2.83;;;12.30;99.90;;;;;;5085593;28;20052;-70
2022/10/29 09:07:45;;;;;;;10.98;3.95;;;12.30;99.90;;;;;;5081395;28;20458;-68
2022/10/29 09:10:42;;;;;;;8.65;2.85;;;12.20;99.90;;;;;;5075107;28;20052;-67
2022/10/29 09:13:20;;;;;;;9.93;3.53;;;12.30;99.90;;;;;;5070005;28;20052;-67
2022/10/29 09:15:52;;;;;;;15.95;3.00;;;12.20;99.90;;;;;;5070956;28;20453;-69
2022/10/29 09:18:42;;;;;;;7.03;2.70;;;12.20;99.90;;;;;;5084497;28;20356;-65
2022/10/29 09:21:36;;;;;;;12.63;3.10;;;12.20;99.90;;;;;;5085374;28;20140;-65
2022/10/29 09:24:27;;;;;;;9.15;2.15;;;12.30;99.90;;;;;;5081767;28;20130;-68
2022/10/29 09:27:10;;;;;;;10.05;2.20;;;12.20;99.90;;;;;;5079285;28;20133;-70
2022/10/29 09:29:48;;;;;;;7.68;1.92;;;12.20;99.90;;;;;;5085900;28;20139;-65
2022/10/29 09:32:34;;;;;;;12.02;3.00;;;12.20;99.90;;;;;;5080038;28;20067;-66
2022/10/29 09:35:13;;;;;;;5.72;2.38;;;12.30;99.90;;;;;;5086120;28;20044;-64
2022/10/29 09:37:58;;;;;;;9.13;4.00;;;12.30;99.90;;;;;;5079511;28;20105;-67
2022/10/29 09:40:41;;;;;;;11.25;2.90;;;12.30;99.90;;;;;;5074629;28;20512;-64
2022/10/29 09:43:14;;;;;;;15.50;3.72;;;12.30;99.90;;;;;;5079863;28;20056;-66
2022/10/29 09:45:51;;;;;;;8.98;4.10;;;12.30;99.90;;;;;;5082708;28;20169;-67
2022/10/29 09:48:28;;;;;;;9.88;3.55;;;12.40;99.90;;;;;;5082782;28;20052;-72
2022/10/29 09:51:21;;;;;;;9.43;2.78;;;12.40;99.90;;;;;;5080758;28;20056;-68
2022/10/29 09:53:50;;;;;;;9.23;2.22;;;12.40;99.90;;;;;;5080750;28;20549;-66
2022/10/29 09:56:17;;;;;;;6.80;2.17;;;12.40;99.90;;;;;;5077722;28;20461;-66
2022/10/29 09:58:49;;;;;;;9.75;2.83;;;12.40;99.90;;;;;;5073320;28;20040;-65
2022/10/29 10:01:16;;;;;;;5.93;2.28;;;12.40;99.90;;;;;;5078128;28;20040;-63
2022/10/29 10:03:47;;;;;;;16.58;3.53;;;12.40;99.90;;;;;;5071680;28;20129;-69
2022/10/29 10:06:15;;;;;;;11.57;2.95;;;12.50;99.90;;;;;;5076804;28;20487;-65
2022/10/29 10:09:04;;;;;;;8.80;2.28;;;12.50;99.90;;;;;;5080372;28;20508;-68
2022/10/29 10:11:42;;;;;;;6.70;1.50;;;12.50;99.90;;;;;;5083764;28;20116;-69
2022/10/29 10:14:30;;;;;;;9.20;2.13;;;12.50;99.90;;;;;;5077578;28;20191;-71
2022/10/29 10:16:58;;;;;;;8.10;2.15;;;12.50;99.90;;;;;;5079441;28;20482;-67
2022/10/29 10:19:27;;;;;;;11.38;3.80;;;12.50;99.90;;;;;;5081812;28;20089;-70
2022/10/29 10:21:59;;;;;;;5.78;2.65;;;12.50;99.90;;;;;;5069659;28;20052;-64
2022/10/29 10:24:31;;;;;;;8.70;2.72;;;12.50;99.90;;;;;;5080970;28;20040;-68
2022/10/29 10:26:59;;;;;;;10.02;2.78;;;12.60;99.90;;;;;;5082201;28;20135;-65
2022/10/29 10:29:27;;;;;;;10.52;2.70;;;12.60;99.90;;;;;;5083176;28;20466;-66
2022/10/29 10:31:54;;;;;;;7.75;2.58;;;12.60;99.90;;;;;;5076613;28;20052;-65
2022/10/29 10:34:45;;;;;;;10.45;4.32;;;12.60;99.90;;;;;;5080806;28;20068;-66
2022/10/29 10:37:19;;;;;;;12.32;2.70;;;12.70;99.90;;;;;;5077787;28;20091;-68
2022/10/29 10:40:05;;;;;;;10.45;2.42;;;12.70;99.90;;;;;;5070502;28;20048;-64
2022/10/29 10:42:38;;;;;;;8.52;2.97;;;12.70;99.90;;;;;;5076923;28;20048;-64
2022/10/29 10:45:13;;;;;;;11.88;3.38;;;12.80;99.90;;;;;;5073764;28;20147;-71
2022/10/29 10:47:47;;;;;;;8.90;2.78;;;12.80;99.90;;;;;;5079499;28;20066;-67
2022/10/29 10:50:24;;;;;;;14.35;2.13;;;12.80;99.90;;;;;;5077201;28;20075;-68
2022/10/29 10:52:55;;;;;;;7.07;2.15;;;12.70;99.90;;;;;;5076552;28;20125;-69
2022/10/29 10:55:23;;;;;;;21.30;2.95;;;12.70;99.90;;;;;;5083036;28;20066;-65
2022/10/29 10:57:59;;;;;;;6.10;2.42;;;12.70;99.90;;;;;;5079295;28;20040;-70
2022/10/29 11:00:30;;;;;;;7.22;2.13;;;12.70;99.90;;;;;;5081994;28;20040;-68
2022/10/29 11:03:07;;;;;;;7.40;2.25;;;12.70;99.90;;;;;;5081438;28;20052;-70
2022/10/29 11:05:39;;;;;;;12.30;2.95;;;12.70;99.90;;;;;;5078964;28;20112;-67
2022/10/29 11:08:17;;;;;;;5.78;1.80;;;12.70;99.90;;;;;;5078638;28;20127;-67
2022/10/29 11:10:51;;;;;;;10.82;5.22;;;12.70;99.90;;;;;;5077790;28;20701;-70
2022/10/29 11:13:22;;;;;;;9.10;2.45;;;12.70;99.90;;;;;;5079034;28;20155;-65
2022/10/29 11:16:26;;;;;;;7.47;2.92;;;12.70;99.90;;;;;;5076763;28;20448;-72
2022/10/29 11:19:03;;;;;;;12.93;2.30;;;12.70;99.90;;;;;;5083222;28;20143;-66
2022/10/29 11:21:45;;;;;;;4.70;1.60;;;12.70;99.90;;;;;;5081250;28;20131;-68
2022/10/29 11:24:40;;;;;;;8.57;1.70;;;12.70;99.90;;;;;;5080205;28;20142;-64
2022/10/29 11:27:28;;;;;;;10.80;2.10;;;12.80;99.90;;;;;;5081548;28;20045;-65
2022/10/29 11:30:14;;;;;;;6.28;2.85;;;12.80;99.90;;;;;;5075048;28;20051;-75
2022/10/29 11:32:50;;;;;;;10.48;3.17;;;12.80;99.90;;;;;;5076974;28;20625;-70
2022/10/29 11:35:38;;;;;;;5.15;1.55;;;12.70;99.90;;;;;;5074878;28;20332;-69
2022/10/29 11:38:15;;;;;;;6.38;1.88;;;12.70;99.90;;;;;;5077472;28;20113;-69
2022/10/29 11:40:45;;;;;;;11.18;1.75;;;12.80;99.90;;;;;;5080210;28;20075;-66
2022/10/29 11:43:14;;;;;;;7.43;2.07;;;12.80;99.90;;;;;;5081532;28;20040;-65
2022/10/29 11:46:18;;;;;;;15.77;5.13;;;12.70;99.90;;;;;;5085863;28;20291;-67
2022/10/29 11:49:06;;;;;;;14.63;5.97;;;12.80;99.90;;;;;;5084004;28;20086;-66
2022/10/29 11:52:07;;;;;;;16.67;5.10;;;12.70;99.90;;;;;;5082843;28;20055;-70
2022/10/29 11:54:54;;;;;;;17.45;5.05;;;12.70;99.90;;;;;;5081766;28;20068;-69
2022/10/29 11:57:30;;;;;;;14.23;6.60;;;12.70;99.90;;;;;;5079710;28;20067;-68
2022/10/29 12:00:08;;;;;;;9.93;3.85;;;12.70;99.90;;;;;;5077222;28;20055;-65
2022/10/29 12:02:59;;;;;;;12.48;2.97;;;12.70;99.90;;;;;;5080918;28;20043;-67
2022/10/29 12:05:40;;;;;;;12.23;3.28;;;12.70;99.90;;;;;;5083628;28;20055;-66
2022/10/29 12:08:49;;;;;;;10.32;2.75;;;12.70;99.90;;;;;;5082210;28;20043;-67
2022/10/29 12:11:25;;;;;;;9.63;2.75;;;12.60;99.90;;;;;;5079283;28;20085;-66
2022/10/29 12:14:25;;;;;;;6.45;3.50;;;12.60;99.90;;;;;;5082613;28;20694;-71
2022/10/29 12:17:18;;;;;;;16.63;3.28;;;12.60;99.90;;;;;;5084126;28;20048;-70
2022/10/29 12:19:59;;;;;;;16.75;2.45;;;12.50;99.90;;;;;;5042872;28;20040;-65
2022/10/29 12:22:31;;;;;;;10.73;2.97;;;12.50;99.90;;;;;;5080856;28;20414;-72
2022/10/29 12:25:28;;;;;;;13.38;2.58;;;12.50;99.90;;;;;;5077155;28;20045;-66
2022/10/29 12:29:05;;;;;;;8.30;2.42;;;12.50;99.90;;;;;;5080824;28;20214;-68
2022/10/29 12:31:58;;;;;;;8.05;2.80;;;12.50;99.90;;;;;;4962644;28;20126;-72
2022/10/29 12:34:35;;;;;;;17.08;2.33;;;12.40;99.90;;;;;;5077109;28;20048;-68
2022/10/29 12:37:33;;;;;;;10.00;2.65;;;12.50;99.90;;;;;;5080679;28;20044;-64
2022/10/29 12:40:27;;;;;;;9.15;3.30;;;12.50;99.90;;;;;;5070326;28;20044;-64
2022/10/29 12:43:04;;;;;;;13.38;3.10;;;12.50;99.90;;;;;;5079288;28;20486;-69
2022/10/29 12:45:50;;;;;;;13.23;3.15;;;12.50;99.90;;;;;;5081523;28;20135;-66
2022/10/29 12:48:49;;;;;;;13.75;3.33;;;12.40;99.90;;;;;;5082089;28;20373;-66
2022/10/29 12:51:38;;;;;;;10.25;3.50;;;12.40;99.90;;;;;;5086000;28;20048;-65
2022/10/29 12:54:28;;;;;;;12.73;2.38;;;12.40;99.90;;;;;;5079831;28;20353;-65
2022/10/29 12:57:01;;;;;;;11.53;6.00;;;12.40;99.90;;;;;;5080875;28;20135;-65
2022/10/29 12:59:34;;;;;;;11.23;2.53;;;12.40;99.90;;;;;;5059491;28;20132;-66
2022/10/29 13:02:16;;;;;;;12.00;3.35;;;12.50;99.90;;;;;;5080701;28;20529;-72
2022/10/29 13:05:08;;;;;;;8.13;3.35;;;12.50;99.90;;;;;;5079566;28;20786;-65